createdAt,value
2023-03-02T00:02:25.226Z,187.24
2023-03-02T00:06:25.219Z,182.84
2023-03-02T00:10:25.368Z,186.39
2023-03-02T00:14:25.499Z,186.80
2023-03-02T00:18:25.660Z,186.21
2023-03-02T00:22:25.765Z,186.44
2023-03-02T00:26:25.973Z,186.23
2023-03-02T00:30:26.107Z,187.57
2023-03-02T00:34:26.277Z,186.69
2023-03-02T00:38:26.392Z,189.08
2023-03-02T00:42:26.563Z,186.63
2023-03-02T00:46:26.712Z,191.69
2023-03-02T00:50:26.845Z,191.86
2023-03-02T00:54:27.003Z,189.98
2023-03-02T00:58:27.208Z,191.38
2023-03-02T01:02:27.502Z,193.39
2023-03-02T01:06:27.563Z,194.48
2023-03-02T01:10:27.775Z,192.26
2023-03-02T01:14:27.908Z,191.78
2023-03-02T01:18:28.060Z,192.00
2023-03-02T01:22:28.279Z,193.93
2023-03-02T01:26:28.425Z,195.21
2023-03-02T01:30:28.599Z,190.95
2023-03-02T01:34:28.812Z,192.97
2023-03-02T01:38:29.029Z,194.48
2023-03-02T01:42:29.140Z,198.59
2023-03-02T01:46:29.321Z,199.19
2023-03-02T01:50:29.519Z,197.39
2023-03-02T01:54:29.757Z,196.98
2023-03-02T01:58:29.676Z,200.07
2023-03-02T02:02:29.629Z,197.64
2023-03-02T02:06:29.791Z,197.67
2023-03-02T02:10:29.563Z,195.99
2023-03-02T02:14:29.508Z,196.78
2023-03-02T02:18:29.463Z,198.26
2023-03-02T02:22:29.494Z,198.07
2023-03-02T02:26:29.412Z,200.32
2023-03-02T02:30:29.358Z,198.65
2023-03-02T02:34:29.332Z,199.44
2023-03-02T02:38:29.326Z,196.21
2023-03-02T02:42:29.490Z,203.78
2023-03-02T02:46:29.506Z,201.57
2023-03-02T02:50:29.450Z,199.95
2023-03-02T02:54:29.405Z,198.59
2023-03-02T02:58:29.346Z,201.03
2023-03-02T03:02:29.373Z,202.90
2023-03-02T03:06:29.450Z,199.14
2023-03-02T03:10:29.246Z,201.27
2023-03-02T03:14:29.181Z,207.46
2023-03-02T03:18:29.160Z,202.34
2023-03-02T03:22:29.135Z,200.92
2023-03-02T03:26:29.317Z,205.78
2023-03-02T03:30:29.251Z,207.29
2023-03-02T03:34:29.232Z,201.69
2023-03-02T03:38:29.154Z,203.68
2023-03-02T03:42:29.106Z,205.46
2023-03-02T03:46:29.147Z,204.61
2023-03-02T03:50:29.058Z,203.59
2023-03-02T03:54:28.979Z,203.99
2023-03-02T03:58:29.032Z,209.95
2023-03-02T04:02:28.951Z,204.77
2023-03-02T04:06:28.942Z,203.94
2023-03-02T04:10:28.898Z,205.10
2023-03-02T04:14:28.834Z,206.47
2023-03-02T04:18:28.789Z,204.55
2023-03-02T04:22:28.787Z,205.16
2023-03-02T04:26:28.729Z,206.08
2023-03-02T04:30:28.674Z,204.43
2023-03-02T04:34:28.633Z,203.12
2023-03-02T04:38:28.624Z,203.85
2023-03-02T04:42:28.563Z,209.24
2023-03-02T04:46:28.660Z,206.60
2023-03-02T04:50:28.536Z,208.06
2023-03-02T04:54:28.497Z,205.32
2023-03-02T04:58:28.464Z,210.13
2023-03-02T05:02:28.519Z,207.00
2023-03-02T05:06:28.415Z,206.50
2023-03-02T05:10:28.340Z,209.67
2023-03-02T05:14:28.310Z,206.14
2023-03-02T05:18:28.240Z,202.90
2023-03-02T05:22:28.250Z,202.35
2023-03-02T05:26:28.226Z,201.87
2023-03-02T05:30:28.402Z,201.66
2023-03-02T05:34:28.628Z,196.24
2023-03-02T05:38:28.606Z,196.46
2023-03-02T05:42:28.597Z,199.84
2023-03-02T05:46:28.555Z,200.50
2023-03-02T05:50:28.488Z,200.04
2023-03-02T05:54:28.429Z,202.77
2023-03-02T05:58:28.394Z,197.12
2023-03-02T06:02:28.328Z,201.76
2023-03-02T06:06:28.337Z,203.32
2023-03-02T06:10:28.267Z,200.10
2023-03-02T06:14:28.257Z,197.83
2023-03-02T06:18:28.413Z,197.12
2023-03-02T06:22:28.624Z,196.37
2023-03-02T06:26:28.850Z,193.96
2023-03-02T06:30:28.948Z,194.17
2023-03-02T06:34:28.794Z,161.76
2023-03-02T06:38:28.710Z,130.32
2023-03-02T06:42:28.676Z,113.26
2023-03-02T06:46:28.693Z,113.50
2023-03-02T06:50:28.618Z,87.94
2023-03-02T06:54:28.577Z,99.31
2023-03-02T06:58:28.543Z,83.51
2023-03-02T07:02:28.475Z,86.04
2023-03-02T07:06:28.465Z,102.72
2023-03-02T07:10:28.429Z,108.02
2023-03-02T07:14:28.422Z,122.81
2023-03-02T07:18:28.351Z,128.76
2023-03-02T07:22:28.325Z,129.09
2023-03-02T07:26:28.249Z,123.34
2023-03-02T07:30:28.332Z,112.55
2023-03-02T07:34:28.196Z,116.62
2023-03-02T07:38:28.200Z,102.06
2023-03-02T07:42:28.156Z,95.84
2023-03-02T07:46:28.132Z,97.59
2023-03-02T07:50:28.051Z,91.11
2023-03-02T07:54:28.021Z,86.32
2023-03-02T07:58:28.046Z,90.08
2023-03-02T08:02:28.039Z,88.45
2023-03-02T08:06:27.990Z,89.44
2023-03-02T08:10:28.000Z,85.05
2023-03-02T08:14:27.947Z,87.70
2023-03-02T08:18:27.900Z,86.24
2023-03-02T08:22:27.958Z,89.40
2023-03-02T08:26:28.044Z,85.85
2023-03-02T08:30:28.075Z,83.70
2023-03-02T08:34:28.150Z,82.14
2023-03-02T08:38:28.181Z,179.40
2023-03-02T08:42:28.390Z,139.07
2023-03-02T08:46:28.154Z,97.23
2023-03-02T08:50:28.186Z,123.11
2023-03-02T08:54:28.115Z,140.01
2023-03-02T08:58:28.094Z,148.29
2023-03-02T09:02:28.063Z,148.32
2023-03-02T09:06:28.362Z,156.51
2023-03-02T09:10:27.967Z,153.76
2023-03-02T09:14:27.942Z,163.71
2023-03-02T09:18:27.914Z,167.00
2023-03-02T09:22:27.910Z,164.97
2023-03-02T09:26:27.887Z,170.73
2023-03-02T09:30:27.801Z,163.17
2023-03-02T09:34:27.721Z,170.35
2023-03-02T09:38:27.700Z,172.33
2023-03-02T09:42:41.682Z,166.05
2023-03-02T09:46:28.615Z,160.69
2023-03-02T09:50:27.582Z,169.09
2023-03-02T09:54:27.598Z,164.63
2023-03-02T09:58:27.491Z,156.40
2023-03-02T10:02:27.726Z,157.18
2023-03-02T10:06:27.873Z,155.14
2023-03-02T10:10:28.008Z,159.11
2023-03-02T10:14:28.155Z,157.52
2023-03-02T10:18:28.332Z,160.30
2023-03-02T10:22:28.465Z,160.18
2023-03-02T10:26:28.640Z,160.15
2023-03-02T10:30:28.816Z,161.26
2023-03-02T10:34:28.980Z,162.91
2023-03-02T10:38:29.120Z,163.46
2023-03-02T10:42:29.464Z,161.65
2023-03-02T10:46:29.597Z,161.74
2023-03-02T10:50:29.707Z,162.95
2023-03-02T10:54:29.949Z,162.68
2023-03-02T10:58:30.084Z,166.20
2023-03-02T11:02:30.281Z,160.60
2023-03-02T11:06:30.848Z,166.42
2023-03-02T11:10:30.718Z,131.88
2023-03-02T11:14:30.960Z,120.04
2023-03-02T11:18:30.895Z,105.88
2023-03-02T11:22:30.820Z,98.34
2023-03-02T11:26:30.833Z,95.57
2023-03-02T11:30:30.811Z,84.87
2023-03-02T11:34:30.716Z,72.51
2023-03-02T11:38:30.703Z,57.22
2023-03-02T11:42:30.718Z,53.97
2023-03-02T11:46:30.784Z,45.08
2023-03-02T11:50:30.587Z,54.79
2023-03-02T11:54:30.543Z,80.49
2023-03-02T11:58:30.534Z,82.13
2023-03-02T12:02:30.492Z,70.43
2023-03-02T12:06:30.444Z,71.40
2023-03-02T12:10:30.382Z,85.88
2023-03-02T12:14:30.536Z,85.52
2023-03-02T12:18:30.519Z,101.10
2023-03-02T12:22:30.502Z,115.71
2023-03-02T12:26:30.481Z,131.21
2023-03-02T12:30:30.418Z,135.08
2023-03-02T12:34:31.269Z,136.06
2023-03-02T12:38:30.383Z,137.36
2023-03-02T12:42:30.362Z,141.14
2023-03-02T12:46:30.449Z,140.61
2023-03-02T12:50:30.195Z,135.54
2023-03-02T12:54:30.199Z,130.33
2023-03-02T12:58:30.185Z,128.51
2023-03-02T13:02:30.136Z,129.72
2023-03-02T13:06:30.088Z,128.98
2023-03-02T13:10:30.168Z,134.71
2023-03-02T13:14:30.009Z,138.16
2023-03-02T13:18:29.953Z,143.82
2023-03-02T13:22:30.108Z,143.84
2023-03-02T13:26:30.227Z,142.51
2023-03-02T13:30:30.108Z,144.97
2023-03-02T13:34:29.955Z,149.93
2023-03-02T13:38:29.891Z,149.82
2023-03-02T13:42:29.850Z,149.17
2023-03-02T13:46:29.902Z,150.57
2023-03-02T13:50:29.810Z,148.86
2023-03-02T13:54:29.723Z,151.90
2023-03-02T13:58:29.720Z,153.25
2023-03-02T14:02:29.666Z,154.49
2023-03-02T14:06:29.616Z,158.02
2023-03-02T14:10:29.579Z,157.08
2023-03-02T14:14:29.617Z,157.51
2023-03-02T14:18:29.557Z,160.95
2023-03-02T14:22:29.529Z,160.62
2023-03-02T14:26:29.454Z,161.18
2023-03-02T14:30:29.406Z,163.68
2023-03-02T14:34:29.393Z,163.25
2023-03-02T14:38:29.371Z,166.90
2023-03-02T14:42:29.303Z,164.76
2023-03-02T14:46:29.297Z,164.56
2023-03-02T14:50:29.235Z,168.88
2023-03-02T14:54:29.192Z,168.76
2023-03-02T14:58:29.154Z,169.56
2023-03-02T15:02:29.142Z,166.93
2023-03-02T15:06:29.098Z,165.23
2023-03-02T15:10:29.079Z,163.81
2023-03-02T15:14:29.009Z,165.08
2023-03-02T15:18:28.981Z,162.55
2023-03-02T15:22:28.940Z,164.63
2023-03-02T15:26:28.910Z,160.47
2023-03-02T15:30:28.873Z,163.19
2023-03-02T15:34:28.914Z,164.98
2023-03-02T15:38:28.899Z,161.79
2023-03-02T15:42:28.890Z,160.80
2023-03-02T15:46:28.927Z,159.06
2023-03-02T15:50:28.896Z,157.68
2023-03-02T15:54:28.968Z,155.42
2023-03-02T15:58:29.032Z,157.87
2023-03-02T16:02:29.086Z,154.66
2023-03-02T16:06:29.211Z,153.51
2023-03-02T16:10:29.354Z,153.81
2023-03-02T16:14:29.528Z,155.22
2023-03-02T16:18:29.703Z,152.31
2023-03-02T16:22:29.867Z,152.18
2023-03-02T16:26:30.118Z,149.47
2023-03-02T16:30:30.267Z,149.21
2023-03-02T16:34:30.457Z,145.40
2023-03-02T16:38:30.641Z,148.31
2023-03-02T16:42:30.860Z,146.38
2023-03-02T16:46:31.107Z,144.81
2023-03-02T16:50:31.290Z,143.16
2023-03-02T16:54:31.515Z,142.67
2023-03-02T16:58:31.730Z,141.29
2023-03-02T17:02:31.693Z,142.82
2023-03-02T17:06:31.656Z,140.52
2023-03-02T17:10:31.630Z,140.20
2023-03-02T17:14:31.590Z,140.28
2023-03-02T17:18:31.517Z,138.85
2023-03-02T17:22:31.499Z,138.66
2023-03-02T17:26:31.423Z,140.44
2023-03-02T17:30:31.450Z,138.06
2023-03-02T17:34:31.453Z,137.58
2023-03-02T17:38:31.330Z,136.20
2023-03-02T17:42:31.305Z,133.98
2023-03-02T17:46:31.297Z,133.72
2023-03-02T17:50:31.223Z,134.23
2023-03-02T17:54:31.210Z,133.16
2023-03-02T17:58:44.220Z,132.04
2023-03-02T18:02:32.128Z,131.38
2023-03-02T18:06:31.097Z,131.06
2023-03-02T18:10:31.063Z,130.86
2023-03-02T18:14:30.992Z,129.68
2023-03-02T18:18:30.964Z,130.42
2023-03-02T18:22:30.982Z,129.40
2023-03-02T18:26:30.878Z,129.39
2023-03-02T18:30:30.828Z,128.05
2023-03-02T18:34:30.821Z,127.85
2023-03-02T18:38:30.791Z,128.95
2023-03-02T18:42:30.817Z,128.07
2023-03-02T18:46:30.913Z,125.65
2023-03-02T18:50:30.887Z,126.26
2023-03-02T18:54:30.998Z,125.34
2023-03-02T18:58:32.301Z,124.78
2023-03-02T19:02:31.204Z,127.10
2023-03-02T19:06:31.302Z,128.24
2023-03-02T19:10:31.381Z,129.56
2023-03-02T19:14:31.526Z,133.57
2023-03-02T19:18:31.686Z,133.84
2023-03-02T19:22:31.787Z,134.78
2023-03-02T19:26:31.942Z,130.94
2023-03-02T19:30:31.992Z,131.14
2023-03-02T19:34:32.102Z,130.76
2023-03-02T19:38:32.238Z,133.12
2023-03-02T19:42:32.350Z,133.63
2023-03-02T19:46:32.502Z,131.39
2023-03-02T19:50:32.714Z,128.98
2023-03-02T19:54:32.780Z,130.54
2023-03-02T19:58:32.998Z,130.34
2023-03-02T20:02:33.147Z,128.66
2023-03-02T20:06:33.280Z,132.38
2023-03-02T20:10:33.428Z,132.43
2023-03-02T20:14:34.337Z,130.26
2023-03-02T20:18:33.836Z,130.12
2023-03-02T20:22:33.952Z,129.47
2023-03-02T20:26:34.248Z,129.65
2023-03-02T20:30:34.461Z,124.73
2023-03-02T20:34:34.602Z,126.49
2023-03-02T20:38:34.745Z,126.69
2023-03-02T20:42:34.970Z,125.46
2023-03-02T20:46:35.165Z,121.36
2023-03-02T20:50:35.359Z,122.49
2023-03-02T20:54:35.570Z,117.94
2023-03-02T20:58:35.797Z,122.83
2023-03-02T21:02:35.963Z,116.65
2023-03-02T21:06:36.163Z,119.41
2023-03-02T21:10:36.347Z,117.34
2023-03-02T21:14:36.351Z,118.68
2023-03-02T21:18:36.459Z,119.45
2023-03-02T21:22:36.257Z,115.81
2023-03-02T21:26:36.222Z,115.04
2023-03-02T21:30:36.172Z,117.65
2023-03-02T21:34:38.311Z,111.45
2023-03-02T21:38:36.252Z,115.70
2023-03-02T21:42:36.245Z,110.93
2023-03-02T21:46:36.294Z,114.00
2023-03-02T21:50:36.103Z,112.85
2023-03-02T21:54:36.131Z,110.08
2023-03-02T21:58:36.047Z,111.32
2023-03-02T22:02:36.012Z,109.96
2023-03-02T22:06:35.976Z,110.58
2023-03-02T22:10:35.956Z,109.81
2023-03-02T22:14:35.890Z,109.45
2023-03-02T22:18:35.857Z,107.79
2023-03-02T22:22:36.015Z,109.03
2023-03-02T22:26:36.119Z,109.06
2023-03-02T22:30:36.301Z,109.18
2023-03-02T22:34:36.231Z,105.67
2023-03-02T22:38:36.218Z,105.26
2023-03-02T22:42:36.222Z,104.81
2023-03-02T22:46:36.204Z,105.52
2023-03-02T22:50:36.136Z,105.30
2023-03-02T22:54:36.057Z,116.71
2023-03-02T22:58:36.032Z,112.83
2023-03-02T23:02:35.998Z,112.62
2023-03-02T23:06:35.990Z,113.28
2023-03-02T23:10:35.947Z,112.67
2023-03-02T23:14:35.871Z,111.30
2023-03-02T23:18:35.880Z,114.25
2023-03-02T23:22:35.820Z,117.38
2023-03-02T23:26:35.814Z,121.50
2023-03-02T23:30:35.924Z,118.60
2023-03-02T23:34:35.951Z,119.98
2023-03-02T23:38:35.987Z,120.62
2023-03-02T23:42:36.017Z,122.49
2023-03-02T23:46:36.098Z,122.41
2023-03-02T23:50:36.185Z,123.33
2023-03-02T23:54:36.199Z,125.92
2023-03-02T23:58:36.168Z,125.96
